Time;durP1;ratioP1;P1;durP2;ratioP2;P2;SDS_P1;SDS_P2;PMS_P1;PMS_P2;Temp;Humidity;BMP_temperature;BMP_pressure;BME280_temperature;BME280_humidity;BME280_pressure;Samples;Min_cycle;Max_cycle;Signal;HPM_P1;HPM_P2
2021/09/06 00:02:05;;;;;;;2.80;1.50;;;;;;;;;;5096356;28;20064;-84
2021/09/06 00:04:32;;;;;;;4.20;1.70;;;;;;;;;;5097190;28;20025;-84
2021/09/06 00:06:59;;;;;;;2.50;1.63;;;;;;;;;;5097229;28;20089;-84
2021/09/06 00:09:25;;;;;;;3.17;1.40;;;;;;;;;;5097357;28;20103;-85
2021/09/06 00:11:51;;;;;;;12.23;2.05;;;;;;;;;;5097248;28;20027;-85
2021/09/06 00:14:17;;;;;;;4.32;1.90;;;;;;;;;;5097339;28;20035;-85
2021/09/06 00:16:43;;;;;;;3.30;1.70;;;;;;;;;;5097539;28;20044;-85
2021/09/06 00:19:10;;;;;;;2.35;1.30;;;;;;;;;;5096197;28;20044;-85
2021/09/06 00:21:36;;;;;;;2.53;1.65;;;;;;;;;;5097226;28;20406;-85
2021/09/06 00:24:02;;;;;;;3.17;1.88;;;;;;;;;;5096237;28;20032;-85
2021/09/06 00:26:28;;;;;;;2.45;1.50;;;;;;;;;;5096221;28;20016;-85
2021/09/06 00:28:55;;;;;;;4.47;1.50;;;;;;;;;;5097193;28;20140;-85
2021/09/06 00:31:21;;;;;;;3.22;1.40;;;;;;;;;;5097044;28;20039;-85
2021/09/06 00:33:47;;;;;;;2.75;1.88;;;;;;;;;;5098059;28;20035;-85
2021/09/06 00:36:13;;;;;;;3.70;1.48;;;;;;;;;;5101053;28;20112;-85
2021/09/06 00:38:39;;;;;;;2.75;1.58;;;;;;;;;;5100890;28;20035;-84
2021/09/06 00:41:05;;;;;;;6.65;1.83;;;;;;;;;;5100563;28;20031;-85
2021/09/06 00:43:31;;;;;;;3.28;1.55;;;;;;;;;;5100662;28;20020;-85
2021/09/06 00:45:57;;;;;;;5.88;1.77;;;;;;;;;;5100683;28;20413;-85
2021/09/06 00:48:25;;;;;;;4.38;1.88;;;;;;;;;;5100855;28;20028;-85
2021/09/06 00:50:52;;;;;;;2.40;1.50;;;;;;;;;;5100805;28;20030;-84
2021/09/06 00:53:18;;;;;;;2.47;1.30;;;;;;;;;;5100684;28;20024;-84
2021/09/06 00:55:44;;;;;;;2.25;1.40;;;;;;;;;;5099424;28;20038;-84
2021/09/06 00:58:10;;;;;;;3.40;1.73;;;;;;;;;;5100362;28;20036;-84
2021/09/06 01:00:38;;;;;;;3.00;1.75;;;;;;;;;;5099858;28;20074;-84
2021/09/06 01:03:04;;;;;;;1.92;1.30;;;;;;;;;;5100341;28;20406;-85
2021/09/06 01:05:30;;;;;;;4.10;1.70;;;;;;;;;;5100208;28;20390;-85
2021/09/06 01:07:59;;;;;;;3.47;1.38;;;;;;;;;;5099255;28;20353;-85
2021/09/06 01:10:25;;;;;;;3.38;1.35;;;;;;;;;;5100173;28;20028;-85
2021/09/06 01:12:51;;;;;;;2.15;1.40;;;;;;;;;;5099157;28;20063;-85
2021/09/06 01:15:17;;;;;;;2.83;1.58;;;;;;;;;;5099078;28;20028;-84
2021/09/06 01:17:44;;;;;;;3.03;1.42;;;;;;;;;;5098885;28;20165;-84
2021/09/06 01:20:11;;;;;;;2.85;1.60;;;;;;;;;;5100004;28;20024;-84
2021/09/06 01:22:37;;;;;;;4.88;1.60;;;;;;;;;;5100231;28;20066;-83
2021/09/06 01:25:04;;;;;;;3.75;1.65;;;;;;;;;;5099954;28;20027;-85
2021/09/06 01:27:30;;;;;;;3.22;1.67;;;;;;;;;;5099775;28;20024;-84
2021/09/06 01:29:56;;;;;;;4.55;2.08;;;;;;;;;;5100091;28;20028;-85
2021/09/06 01:32:22;;;;;;;4.15;2.05;;;;;;;;;;5099940;28;20028;-84
2021/09/06 01:34:49;;;;;;;2.97;1.90;;;;;;;;;;5098943;28;20114;-85
2021/09/06 01:37:15;;;;;;;3.40;1.67;;;;;;;;;;5099785;28;20024;-84
2021/09/06 01:39:41;;;;;;;11.40;1.63;;;;;;;;;;5098650;28;20069;-85
2021/09/06 01:42:07;;;;;;;4.07;1.67;;;;;;;;;;5098825;28;20390;-85
2021/09/06 01:44:33;;;;;;;4.00;1.65;;;;;;;;;;5099010;28;20024;-85
2021/09/06 01:46:59;;;;;;;6.82;2.03;;;;;;;;;;5099491;28;20443;-85
2021/09/06 01:49:28;;;;;;;9.52;2.17;;;;;;;;;;5099630;28;20032;-84
2021/09/06 01:51:54;;;;;;;3.67;1.83;;;;;;;;;;5099399;28;20031;-84
2021/09/06 01:54:20;;;;;;;3.35;1.83;;;;;;;;;;5099336;28;20028;-84
2021/09/06 01:56:46;;;;;;;6.65;2.30;;;;;;;;;;5098087;28;20020;-84
2021/09/06 01:59:12;;;;;;;3.15;1.90;;;;;;;;;;5099495;28;20035;-84
2021/09/06 02:01:38;;;;;;;7.03;2.40;;;;;;;;;;5098125;28;20431;-84
2021/09/06 02:04:04;;;;;;;2.80;1.67;;;;;;;;;;5098188;28;20039;-84
2021/09/06 02:06:33;;;;;;;8.13;2.22;;;;;;;;;;5098098;28;20028;-84
2021/09/06 02:08:59;;;;;;;5.50;2.00;;;;;;;;;;5098049;28;20066;-84
2021/09/06 02:11:26;;;;;;;5.00;1.95;;;;;;;;;;5098942;28;20418;-85
2021/09/06 02:13:53;;;;;;;3.67;2.10;;;;;;;;;;5098956;28;20028;-85
2021/09/06 02:16:19;;;;;;;3.28;1.70;;;;;;;;;;5099240;28;20020;-84
2021/09/06 02:18:45;;;;;;;4.78;1.83;;;;;;;;;;5099015;28;20165;-84
2021/09/06 02:21:11;;;;;;;4.07;1.67;;;;;;;;;;5097765;28;20040;-84
2021/09/06 02:23:37;;;;;;;2.90;1.80;;;;;;;;;;5097991;28;20043;-85
2021/09/06 02:26:03;;;;;;;3.25;1.98;;;;;;;;;;5098831;28;20027;-84
2021/09/06 02:28:29;;;;;;;4.22;1.60;;;;;;;;;;5098846;28;20031;-84
2021/09/06 02:30:55;;;;;;;3.28;1.77;;;;;;;;;;5098930;28;20024;-84
2021/09/06 02:33:21;;;;;;;5.28;1.90;;;;;;;;;;5098550;28;20027;-84
2021/09/06 02:35:47;;;;;;;4.75;2.22;;;;;;;;;;5097549;28;20140;-84
2021/09/06 02:38:13;;;;;;;5.60;1.85;;;;;;;;;;5098608;28;20035;-84
2021/09/06 02:40:39;;;;;;;4.72;2.10;;;;;;;;;;5097263;28;20073;-84
2021/09/06 02:43:05;;;;;;;7.57;2.00;;;;;;;;;;5098357;28;20039;-84
2021/09/06 02:45:31;;;;;;;4.28;1.75;;;;;;;;;;5098272;28;20020;-84
2021/09/06 02:47:57;;;;;;;4.30;1.77;;;;;;;;;;5098308;28;20028;-86
2021/09/06 02:50:23;;;;;;;4.80;1.95;;;;;;;;;;5097495;28;20064;-85
2021/09/06 02:52:51;;;;;;;2.67;1.65;;;;;;;;;;5098510;28;20153;-85
2021/09/06 02:55:17;;;;;;;3.50;1.90;;;;;;;;;;5097245;28;20041;-86
2021/09/06 02:57:43;;;;;;;4.18;2.00;;;;;;;;;;5097428;28;20035;-84
2021/09/06 03:00:10;;;;;;;4.03;1.70;;;;;;;;;;5098003;28;20385;-85
2021/09/06 03:02:36;;;;;;;2.90;1.95;;;;;;;;;;5097064;28;20028;-84
2021/09/06 03:05:02;;;;;;;4.53;2.28;;;;;;;;;;5098045;28;20119;-84
2021/09/06 03:07:28;;;;;;;3.25;1.73;;;;;;;;;;5098216;28;20024;-84
2021/09/06 03:09:54;;;;;;;3.15;1.90;;;;;;;;;;5098092;28;20024;-83
2021/09/06 03:12:20;;;;;;;5.35;2.00;;;;;;;;;;5097936;28;20099;-83
2021/09/06 03:14:46;;;;;;;11.55;2.17;;;;;;;;;;5097758;28;20020;-83
2021/09/06 03:17:12;;;;;;;4.35;2.08;;;;;;;;;;5097849;28;20027;-83
2021/09/06 03:19:38;;;;;;;6.57;3.03;;;;;;;;;;5097393;28;20051;-83
2021/09/06 03:22:04;;;;;;;4.97;2.00;;;;;;;;;;5097586;28;20020;-84
2021/09/06 03:24:31;;;;;;;2.50;1.70;;;;;;;;;;5097871;28;20016;-84
2021/09/06 03:26:57;;;;;;;3.75;1.85;;;;;;;;;;5097677;28;20023;-85
2021/09/06 03:29:23;;;;;;;4.00;2.15;;;;;;;;;;5096671;28;20032;-84
2021/09/06 03:31:49;;;;;;;4.80;1.98;;;;;;;;;;5097624;28;20028;-85
2021/09/06 03:34:15;;;;;;;3.13;1.90;;;;;;;;;;5096716;28;20047;-84
2021/09/06 03:36:41;;;;;;;5.18;2.47;;;;;;;;;;5097738;28;20063;-84
2021/09/06 03:39:07;;;;;;;4.55;1.67;;;;;;;;;;5097516;28;20024;-84
2021/09/06 03:41:33;;;;;;;6.25;2.10;;;;;;;;;;5096619;28;20043;-84
2021/09/06 03:43:59;;;;;;;6.10;2.70;;;;;;;;;;5097578;28;20044;-85
2021/09/06 03:46:25;;;;;;;8.82;3.42;;;;;;;;;;5097574;28;20099;-84
2021/09/06 03:48:51;;;;;;;7.95;3.20;;;;;;;;;;5097467;28;20030;-85
2021/09/06 03:51:17;;;;;;;8.80;2.65;;;;;;;;;;5096639;28;20028;-84
2021/09/06 03:53:43;;;;;;;4.68;2.60;;;;;;;;;;5097587;28;20028;-84
2021/09/06 03:56:09;;;;;;;2.97;2.17;;;;;;;;;;5097371;28;20028;-85
2021/09/06 03:58:36;;;;;;;6.32;2.17;;;;;;;;;;5097523;28;20077;-84
2021/09/06 04:01:02;;;;;;;4.05;2.30;;;;;;;;;;5096330;28;20032;-84
2021/09/06 04:03:28;;;;;;;4.97;1.77;;;;;;;;;;5097548;28;20024;-83
2021/09/06 04:05:54;;;;;;;5.20;1.85;;;;;;;;;;5097233;28;20026;-83
2021/09/06 04:08:20;;;;;;;4.53;1.80;;;;;;;;;;5097685;28;20055;-83
2021/09/06 04:10:47;;;;;;;5.57;2.10;;;;;;;;;;5100154;28;20083;-83
2021/09/06 04:13:13;;;;;;;3.28;1.98;;;;;;;;;;5101216;28;20062;-84
2021/09/06 04:15:39;;;;;;;4.40;1.88;;;;;;;;;;5100376;28;20028;-83
2021/09/06 04:18:05;;;;;;;10.13;2.47;;;;;;;;;;5101202;28;20043;-84
2021/09/06 04:20:31;;;;;;;5.55;2.47;;;;;;;;;;5101289;28;20020;-83
2021/09/06 04:22:57;;;;;;;5.97;2.10;;;;;;;;;;5100101;28;20115;-84
2021/09/06 04:25:23;;;;;;;4.80;1.83;;;;;;;;;;5101147;28;20023;-84
2021/09/06 04:27:49;;;;;;;8.93;2.10;;;;;;;;;;5100990;28;20029;-84
2021/09/06 04:30:15;;;;;;;11.82;2.92;;;;;;;;;;5100921;28;20063;-85
2021/09/06 04:32:41;;;;;;;6.65;2.75;;;;;;;;;;5100878;28;20035;-83
2021/09/06 04:35:07;;;;;;;4.72;1.88;;;;;;;;;;5100902;28;20024;-84
2021/09/06 04:37:33;;;;;;;3.63;1.92;;;;;;;;;;5100882;28;20028;-84
2021/09/06 04:39:59;;;;;;;7.05;2.53;;;;;;;;;;5099636;28;20032;-85
2021/09/06 04:42:25;;;;;;;5.18;2.00;;;;;;;;;;5099577;28;20020;-84
2021/09/06 04:44:51;;;;;;;4.93;2.08;;;;;;;;;;5100746;28;20036;-83
2021/09/06 04:47:19;;;;;;;6.70;2.03;;;;;;;;;;5099731;28;20334;-84
2021/09/06 04:49:45;;;;;;;4.90;1.90;;;;;;;;;;5099599;28;20114;-83
2021/09/06 04:52:12;;;;;;;6.07;2.05;;;;;;;;;;5100377;28;20025;-84
2021/09/06 04:54:56;;;;;;;12.55;2.20;;;;;;;;;;5100448;28;20031;-84
2021/09/06 04:57:22;;;;;;;7.50;3.22;;;;;;;;;;5099569;28;20028;-84
2021/09/06 04:59:48;;;;;;;5.93;2.63;;;;;;;;;;5099161;28;20044;-85
2021/09/06 05:02:14;;;;;;;5.05;2.28;;;;;;;;;;5100522;28;20020;-85
2021/09/06 05:04:40;;;;;;;6.82;3.17;;;;;;;;;;5099527;28;20024;-83
2021/09/06 05:07:06;;;;;;;5.35;2.72;;;;;;;;;;5099337;28;20436;-83
2021/09/06 05:09:33;;;;;;;4.43;2.60;;;;;;;;;;5099923;28;20024;-81
2021/09/06 05:11:59;;;;;;;10.27;2.80;;;;;;;;;;5099979;28;20145;-83
2021/09/06 05:14:25;;;;;;;5.45;2.38;;;;;;;;;;5099998;28;20024;-82
2021/09/06 05:16:51;;;;;;;10.48;3.88;;;;;;;;;;5098899;28;20131;-84
2021/09/06 05:19:17;;;;;;;9.88;3.25;;;;;;;;;;5098026;28;20044;-83
2021/09/06 05:21:43;;;;;;;6.55;2.60;;;;;;;;;;5098533;28;20111;-82
2021/09/06 05:24:09;;;;;;;5.65;2.40;;;;;;;;;;5100066;28;20027;-85
2021/09/06 05:26:36;;;;;;;8.02;3.30;;;;;;;;;;5100055;28;20020;-91
2021/09/06 05:29:03;;;;;;;6.93;3.67;;;;;;;;;;5100296;28;20024;-87
2021/09/06 05:31:29;;;;;;;6.40;3.78;;;;;;;;;;5099869;28;20107;-88
2021/09/06 05:33:55;;;;;;;5.20;3.13;;;;;;;;;;5099007;28;20028;-94
2021/09/06 05:36:21;;;;;;;7.20;4.15;;;;;;;;;;5099736;28;20024;-93
2021/09/06 05:38:47;;;;;;;6.75;3.30;;;;;;;;;;5099768;28;20028;-88
2021/09/06 05:41:15;;;;;;;7.18;2.65;;;;;;;;;;5099822;28;20055;-89
2021/09/06 05:43:41;;;;;;;5.20;2.50;;;;;;;;;;5098746;28;20035;-89
2021/09/06 05:46:07;;;;;;;6.22;2.72;;;;;;;;;;5099837;28;20024;-90
2021/09/06 05:48:33;;;;;;;5.75;3.30;;;;;;;;;;5098629;28;20053;-90
2021/09/06 05:50:59;;;;;;;8.25;3.50;;;;;;;;;;5099566;28;20158;-89
2021/09/06 05:53:25;;;;;;;6.93;3.08;;;;;;;;;;5099631;28;20032;-90
2021/09/06 05:55:52;;;;;;;6.43;3.08;;;;;;;;;;5098950;28;20060;-89
2021/09/06 05:58:18;;;;;;;6.90;2.78;;;;;;;;;;5099557;28;20032;-90
2021/09/06 06:00:44;;;;;;;7.70;3.92;;;;;;;;;;5099380;28;20043;-89
2021/09/06 06:03:10;;;;;;;9.18;4.20;;;;;;;;;;5099408;28;20103;-90
2021/09/06 06:05:36;;;;;;;5.35;3.45;;;;;;;;;;5098516;28;20036;-90
2021/09/06 06:08:02;;;;;;;6.03;2.90;;;;;;;;;;5098406;28;20048;-89
2021/09/06 06:10:28;;;;;;;6.63;2.90;;;;;;;;;;5098367;28;20028;-89
2021/09/06 06:12:54;;;;;;;7.57;3.20;;;;;;;;;;5098926;28;20027;-89
2021/09/06 06:15:20;;;;;;;9.38;3.30;;;;;;;;;;5099062;28;20028;-90
2021/09/06 06:17:46;;;;;;;7.75;2.95;;;;;;;;;;5099035;28;20048;-89
2021/09/06 06:20:12;;;;;;;7.15;3.38;;;;;;;;;;5098185;28;20027;-89
2021/09/06 06:22:39;;;;;;;10.23;3.15;;;;;;;;;;5099146;28;20020;-91
2021/09/06 06:25:05;;;;;;;11.85;3.33;;;;;;;;;;5099044;28;20023;-88
2021/09/06 06:27:31;;;;;;;7.63;3.67;;;;;;;;;;5092796;28;20306;-88
2021/09/06 06:29:57;;;;;;;6.60;3.03;;;;;;;;;;5089929;28;20024;-88
2021/09/06 06:32:23;;;;;;;5.45;3.45;;;;;;;;;;5095725;28;20043;-85
2021/09/06 06:34:49;;;;;;;9.80;4.07;;;;;;;;;;5098813;28;20020;-86
2021/09/06 06:37:15;;;;;;;7.05;3.58;;;;;;;;;;5087872;28;20031;-86
2021/09/06 06:39:41;;;;;;;5.47;3.25;;;;;;;;;;5077460;28;20111;-86
2021/09/06 06:42:07;;;;;;;8.15;3.30;;;;;;;;;;5078215;28;20036;-85
2021/09/06 06:44:33;;;;;;;7.97;3.45;;;;;;;;;;5078207;28;20025;-86
2021/09/06 06:47:00;;;;;;;9.23;4.97;;;;;;;;;;5078149;28;20065;-85
2021/09/06 06:49:26;;;;;;;13.10;6.53;;;;;;;;;;5078148;28;20048;-86
2021/09/06 06:51:52;;;;;;;18.75;10.05;;;;;;;;;;5077212;28;20108;-86
2021/09/06 06:54:18;;;;;;;9.63;4.65;;;;;;;;;;5077362;28;20024;-86
2021/09/06 06:56:44;;;;;;;11.45;5.93;;;;;;;;;;5077214;28;20025;-86
2021/09/06 06:59:10;;;;;;;8.57;4.85;;;;;;;;;;5080493;28;20028;-86
2021/09/06 07:01:36;;;;;;;9.63;4.47;;;;;;;;;;5088914;28;20032;-86
2021/09/06 07:04:03;;;;;;;34.08;19.05;;;;;;;;;;5076867;28;20432;-86
2021/09/06 07:06:30;;;;;;;15.52;7.28;;;;;;;;;;5077021;28;20103;-86
2021/09/06 07:08:56;;;;;;;33.60;17.70;;;;;;;;;;5078008;28;20024;-86
2021/09/06 07:11:22;;;;;;;33.80;18.73;;;;;;;;;;5076917;28;20365;-86
2021/09/06 07:13:48;;;;;;;24.95;12.32;;;;;;;;;;5076953;28;20036;-87
2021/09/06 07:16:14;;;;;;;27.02;14.05;;;;;;;;;;5077717;28;20063;-86
2021/09/06 07:18:40;;;;;;;21.45;10.10;;;;;;;;;;5077679;28;20044;-85
2021/09/06 07:21:06;;;;;;;16.35;9.50;;;;;;;;;;5077370;28;20056;-85
2021/09/06 07:23:32;;;;;;;21.40;11.50;;;;;;;;;;5076824;28;20016;-85
2021/09/06 07:25:58;;;;;;;15.70;9.15;;;;;;;;;;5076787;28;20075;-86
2021/09/06 07:28:24;;;;;;;17.98;10.77;;;;;;;;;;5077897;28;20021;-86
2021/09/06 07:30:50;;;;;;;23.70;12.82;;;;;;;;;;5076737;28;20094;-87
2021/09/06 07:33:16;;;;;;;29.40;16.15;;;;;;;;;;5076412;28;20040;-86
2021/09/06 07:35:42;;;;;;;58.90;37.58;;;;;;;;;;5076571;28;20418;-86
2021/09/06 07:38:08;;;;;;;41.00;26.35;;;;;;;;;;5076448;28;20410;-85
2021/09/06 07:40:35;;;;;;;38.55;18.80;;;;;;;;;;5085382;28;20318;-84
2021/09/06 07:43:01;;;;;;;51.00;35.33;;;;;;;;;;5093739;28;20354;-86
2021/09/06 07:45:27;;;;;;;20.75;14.48;;;;;;;;;;5097531;28;20017;-85
2021/09/06 07:47:53;;;;;;;19.70;11.30;;;;;;;;;;5096795;28;20318;-85
2021/09/06 07:50:19;;;;;;;28.88;19.08;;;;;;;;;;5096742;28;20132;-85
2021/09/06 07:52:46;;;;;;;32.45;21.45;;;;;;;;;;5097813;28;20063;-90
2021/09/06 07:55:12;;;;;;;42.83;26.80;;;;;;;;;;5097795;28;20047;-93
2021/09/06 07:57:38;;;;;;;35.60;23.77;;;;;;;;;;5096781;28;20144;-92
2021/09/06 08:00:05;;;;;;;36.75;23.27;;;;;;;;;;5097714;28;20045;-91
2021/09/06 08:02:48;;;;;;;22.38;14.00;;;;;;;;;;5097241;28;20020;-82
2021/09/06 08:05:14;;;;;;;23.38;12.38;;;;;;;;;;5096056;28;20020;-83
2021/09/06 08:07:40;;;;;;;24.00;14.55;;;;;;;;;;5097295;28;20318;-82
2021/09/06 08:10:06;;;;;;;22.98;10.18;;;;;;;;;;5096921;28;20394;-82
2021/09/06 08:12:32;;;;;;;11.90;7.93;;;;;;;;;;5096834;28;20016;-81
2021/09/06 08:14:58;;;;;;;14.40;7.47;;;;;;;;;;5095884;28;20017;-82
2021/09/06 08:17:25;;;;;;;16.55;11.00;;;;;;;;;;5096905;28;20024;-82
2021/09/06 08:19:51;;;;;;;13.15;7.50;;;;;;;;;;5090092;28;20035;-82
2021/09/06 08:22:17;;;;;;;63.15;33.88;;;;;;;;;;5090872;28;20062;-82
2021/09/06 08:24:44;;;;;;;20.55;8.80;;;;;;;;;;5096809;28;20020;-82
2021/09/06 08:27:10;;;;;;;28.60;12.25;;;;;;;;;;5078457;28;20299;-82
2021/09/06 08:29:36;;;;;;;21.60;9.65;;;;;;;;;;5075444;28;20045;-83
2021/09/06 08:32:03;;;;;;;17.92;7.55;;;;;;;;;;5075697;28;20438;-83
2021/09/06 08:34:29;;;;;;;11.95;6.65;;;;;;;;;;5076444;28;20429;-84
2021/09/06 08:36:55;;;;;;;10.48;6.30;;;;;;;;;;5076972;28;20020;-83
2021/09/06 08:39:21;;;;;;;18.83;8.10;;;;;;;;;;5076578;28;20024;-84
2021/09/06 08:41:47;;;;;;;26.75;16.35;;;;;;;;;;5076603;28;20056;-85
2021/09/06 08:44:13;;;;;;;12.85;7.15;;;;;;;;;;5076720;28;20028;-83
2021/09/06 08:46:40;;;;;;;14.00;6.78;;;;;;;;;;5075365;28;20438;-83
2021/09/06 08:49:06;;;;;;;19.65;6.78;;;;;;;;;;5076587;28;20024;-83
2021/09/06 08:51:34;;;;;;;12.40;7.20;;;;;;;;;;5076684;28;20358;-83
2021/09/06 08:54:00;;;;;;;13.63;7.00;;;;;;;;;;5076593;28;20025;-83
2021/09/06 08:56:27;;;;;;;13.73;6.40;;;;;;;;;;5079521;28;20071;-83
2021/09/06 08:58:53;;;;;;;13.65;6.53;;;;;;;;;;5080384;28;20034;-83
2021/09/06 09:01:19;;;;;;;11.02;6.72;;;;;;;;;;5079837;28;20094;-83
2021/09/06 09:03:45;;;;;;;11.02;6.68;;;;;;;;;;5078853;28;20036;-84
2021/09/06 09:06:11;;;;;;;16.90;7.13;;;;;;;;;;5079093;28;20020;-83
2021/09/06 09:08:38;;;;;;;12.88;6.53;;;;;;;;;;5080034;28;20044;-83
2021/09/06 09:11:07;;;;;;;15.45;6.10;;;;;;;;;;5079706;28;20035;-83
2021/09/06 09:13:34;;;;;;;12.80;6.10;;;;;;;;;;5078714;28;20326;-83
2021/09/06 09:16:01;;;;;;;10.10;6.20;;;;;;;;;;5079719;28;20024;-83
2021/09/06 09:18:28;;;;;;;11.32;6.40;;;;;;;;;;5078565;28;20048;-82
2021/09/06 09:20:59;;;;;;;13.75;6.30;;;;;;;;;;5078152;28;20033;-83
2021/09/06 09:23:39;;;;;;;12.53;5.83;;;;;;;;;;5078595;28;20418;-83
2021/09/06 09:26:05;;;;;;;9.45;5.90;;;;;;;;;;5078478;28;20016;-83
2021/09/06 09:28:31;;;;;;;15.88;6.03;;;;;;;;;;5079690;28;20032;-82
2021/09/06 09:31:07;;;;;;;8.82;6.18;;;;;;;;;;5078542;28;20056;-83
2021/09/06 09:33:38;;;;;;;13.00;6.47;;;;;;;;;;5079258;28;20027;-83
2021/09/06 09:36:04;;;;;;;13.25;6.30;;;;;;;;;;5078490;28;20031;-82
2021/09/06 09:38:37;;;;;;;13.13;6.03;;;;;;;;;;5079229;28;20028;-83
2021/09/06 09:41:11;;;;;;;9.25;6.00;;;;;;;;;;5079163;28;20371;-83
2021/09/06 09:43:37;;;;;;;12.20;5.70;;;;;;;;;;5079170;28;20021;-82
2021/09/06 09:46:04;;;;;;;11.23;6.20;;;;;;;;;;5079145;28;20422;-83
2021/09/06 09:48:30;;;;;;;14.65;6.55;;;;;;;;;;5079174;28;20027;-83
2021/09/06 09:50:56;;;;;;;12.18;5.93;;;;;;;;;;5079087;28;20020;-83
2021/09/06 09:53:23;;;;;;;8.65;5.55;;;;;;;;;;5078015;28;20414;-83
2021/09/06 09:55:49;;;;;;;12.30;6.68;;;;;;;;;;5078859;28;20028;-83
2021/09/06 09:58:16;;;;;;;12.77;5.80;;;;;;;;;;5079025;28;20086;-83
2021/09/06 10:00:45;;;;;;;11.90;6.47;;;;;;;;;;5079039;28;20036;-83
2021/09/06 10:03:11;;;;;;;14.77;6.07;;;;;;;;;;5078895;28;20021;-83
2021/09/06 10:05:39;;;;;;;8.88;6.18;;;;;;;;;;5077290;28;20024;-83
2021/09/06 10:08:06;;;;;;;13.27;6.03;;;;;;;;;;5077687;28;20020;-83
2021/09/06 10:10:36;;;;;;;11.02;6.25;;;;;;;;;;5078527;28;20404;-83
2021/09/06 10:13:04;;;;;;;15.73;6.03;;;;;;;;;;5077548;28;20033;-82
2021/09/06 10:15:30;;;;;;;15.25;5.82;;;;;;;;;;5078623;28;20031;-83
2021/09/06 10:17:56;;;;;;;15.73;5.97;;;;;;;;;;5078469;28;20048;-83
2021/09/06 10:20:23;;;;;;;15.13;7.15;;;;;;;;;;5078580;28;20025;-83
2021/09/06 10:23:06;;;;;;;16.75;5.60;;;;;;;;;;5078502;28;20024;-83
2021/09/06 10:25:34;;;;;;;12.73;6.30;;;;;;;;;;5078568;28;20149;-84
2021/09/06 10:28:04;;;;;;;8.82;5.43;;;;;;;;;;5078330;28;20025;-83
2021/09/06 10:30:36;;;;;;;13.73;6.15;;;;;;;;;;5077166;28;20032;-83
2021/09/06 10:33:03;;;;;;;8.55;5.20;;;;;;;;;;5077206;28;20045;-83
2021/09/06 10:35:29;;;;;;;11.75;5.90;;;;;;;;;;5077074;28;20330;-83
2021/09/06 10:38:11;;;;;;;9.88;5.47;;;;;;;;;;5076949;28;20146;-83
2021/09/06 10:40:38;;;;;;;18.25;7.03;;;;;;;;;;5077855;28;20082;-83
2021/09/06 10:43:21;;;;;;;11.40;5.78;;;;;;;;;;5078272;28;20020;-83
2021/09/06 10:45:49;;;;;;;12.35;6.10;;;;;;;;;;5078110;28;20032;-83
2021/09/06 10:48:22;;;;;;;12.10;6.22;;;;;;;;;;5077636;28;20031;-82
2021/09/06 10:50:49;;;;;;;12.63;5.55;;;;;;;;;;5076679;28;20043;-83
2021/09/06 10:53:19;;;;;;;10.77;6.05;;;;;;;;;;5077897;28;20028;-83
2021/09/06 10:55:46;;;;;;;12.52;6.00;;;;;;;;;;5076732;28;20029;-83
2021/09/06 10:58:12;;;;;;;11.00;5.95;;;;;;;;;;5076808;28;20131;-83
2021/09/06 11:00:38;;;;;;;15.45;5.78;;;;;;;;;;5077687;28;20029;-84
2021/09/06 11:03:06;;;;;;;12.02;5.47;;;;;;;;;;5077765;28;20021;-84
2021/09/06 11:05:32;;;;;;;9.93;5.88;;;;;;;;;;5077753;28;20020;-84
2021/09/06 11:08:08;;;;;;;12.77;6.20;;;;;;;;;;5076670;28;20039;-83
2021/09/06 11:10:34;;;;;;;9.77;5.78;;;;;;;;;;5077698;28;20031;-84
2021/09/06 11:13:02;;;;;;;15.23;6.72;;;;;;;;;;5077548;28;20047;-83
2021/09/06 11:15:34;;;;;;;12.27;5.78;;;;;;;;;;5077373;28;20033;-84
2021/09/06 11:18:02;;;;;;;13.77;6.22;;;;;;;;;;5076588;28;20342;-83
2021/09/06 11:20:29;;;;;;;9.75;6.50;;;;;;;;;;5077426;28;20044;-84
2021/09/06 11:22:59;;;;;;;10.60;5.90;;;;;;;;;;5076416;28;20343;-83
2021/09/06 11:25:26;;;;;;;11.25;5.55;;;;;;;;;;5077568;28;20025;-83
2021/09/06 11:27:53;;;;;;;13.00;6.00;;;;;;;;;;5077521;28;20429;-84
2021/09/06 11:30:25;;;;;;;11.25;6.15;;;;;;;;;;5077308;28;20038;-84
2021/09/06 11:32:52;;;;;;;9.45;5.93;;;;;;;;;;5079348;28;20145;-83
2021/09/06 11:35:19;;;;;;;9.50;6.25;;;;;;;;;;5085359;28;20058;-83
2021/09/06 11:37:46;;;;;;;9.98;6.32;;;;;;;;;;5087132;28;20024;-83
2021/09/06 11:40:12;;;;;;;9.48;5.88;;;;;;;;;;5086377;28;20021;-83
2021/09/06 11:42:38;;;;;;;10.02;6.45;;;;;;;;;;5085814;28;20025;-83
2021/09/06 11:45:06;;;;;;;13.05;6.05;;;;;;;;;;5084349;28;20013;-83
2021/09/06 11:47:35;;;;;;;12.40;6.22;;;;;;;;;;5077044;28;20395;-83
2021/09/06 11:50:01;;;;;;;7.13;5.53;;;;;;;;;;5077258;28;20141;-83
2021/09/06 11:52:28;;;;;;;11.05;6.25;;;;;;;;;;5077111;28;20040;-83
2021/09/06 11:54:54;;;;;;;12.75;5.82;;;;;;;;;;5076958;28;20029;-83
2021/09/06 11:57:27;;;;;;;11.32;7.57;;;;;;;;;;5077171;28;20028;-83
2021/09/06 11:59:57;;;;;;;13.35;8.32;;;;;;;;;;5076943;28;20028;-83
2021/09/06 12:02:23;;;;;;;12.73;7.70;;;;;;;;;;5076004;28;20032;-83
2021/09/06 12:04:50;;;;;;;13.70;9.38;;;;;;;;;;5077138;28;20027;-85
2021/09/06 12:07:17;;;;;;;19.33;9.68;;;;;;;;;;5075941;28;20502;-83
2021/09/06 12:09:44;;;;;;;11.93;8.20;;;;;;;;;;5077083;28;20345;-83
2021/09/06 12:12:20;;;;;;;12.98;7.60;;;;;;;;;;5076877;28;20021;-83
2021/09/06 12:14:47;;;;;;;13.38;7.88;;;;;;;;;;5077183;28;20021;-83
2021/09/06 12:17:13;;;;;;;12.35;7.70;;;;;;;;;;5077134;28;20028;-84
2021/09/06 12:19:41;;;;;;;13.20;7.07;;;;;;;;;;5076590;28;20052;-83
2021/09/06 12:22:23;;;;;;;12.73;6.80;;;;;;;;;;5075740;28;20025;-83
2021/09/06 12:24:53;;;;;;;14.07;6.13;;;;;;;;;;5075686;28;20028;-83
2021/09/06 12:27:20;;;;;;;11.30;6.35;;;;;;;;;;5076973;28;20017;-83
2021/09/06 12:29:56;;;;;;;8.48;5.90;;;;;;;;;;5078952;28;20418;-83
2021/09/06 12:32:23;;;;;;;9.95;6.78;;;;;;;;;;5079466;28;20044;-84
2021/09/06 12:34:50;;;;;;;13.48;6.68;;;;;;;;;;5080612;28;20032;-84
2021/09/06 12:37:16;;;;;;;12.73;7.45;;;;;;;;;;5080678;28;20029;-83
2021/09/06 12:39:42;;;;;;;14.82;7.97;;;;;;;;;;5080466;28;20110;-83
2021/09/06 12:42:08;;;;;;;10.25;6.70;;;;;;;;;;5080150;28;20034;-84
2021/09/06 12:44:35;;;;;;;9.05;6.20;;;;;;;;;;5080480;28;20024;-83
2021/09/06 12:47:04;;;;;;;10.80;6.78;;;;;;;;;;5080508;28;20283;-83
2021/09/06 12:49:30;;;;;;;11.73;7.00;;;;;;;;;;5080259;28;20100;-83
2021/09/06 12:51:59;;;;;;;12.02;6.63;;;;;;;;;;5079050;28;20036;-81
2021/09/06 12:54:25;;;;;;;11.70;7.05;;;;;;;;;;5079279;28;20032;-85
2021/09/06 12:56:52;;;;;;;12.65;6.70;;;;;;;;;;5079278;28;20377;-85
2021/09/06 12:59:19;;;;;;;10.50;6.50;;;;;;;;;;5080107;28;20104;-83
2021/09/06 13:01:47;;;;;;;11.65;6.85;;;;;;;;;;5080082;28;20029;-84
2021/09/06 13:04:13;;;;;;;10.43;6.55;;;;;;;;;;5078967;28;20330;-83
2021/09/06 13:06:39;;;;;;;12.15;6.13;;;;;;;;;;5080098;28;20047;-84
2021/09/06 13:09:05;;;;;;;9.95;6.60;;;;;;;;;;5079694;28;20147;-84
2021/09/06 13:11:31;;;;;;;8.50;6.13;;;;;;;;;;5079915;28;20028;-84
2021/09/06 13:13:57;;;;;;;12.82;7.07;;;;;;;;;;5078776;28;20044;-84
2021/09/06 13:16:24;;;;;;;8.57;6.32;;;;;;;;;;5079989;28;20029;-84
2021/09/06 13:18:50;;;;;;;13.18;7.30;;;;;;;;;;5079693;28;20056;-84
2021/09/06 13:21:19;;;;;;;12.35;7.03;;;;;;;;;;5078683;28;20399;-84
2021/09/06 13:23:45;;;;;;;10.35;6.70;;;;;;;;;;5079838;28;20112;-84
2021/09/06 13:26:13;;;;;;;10.77;6.72;;;;;;;;;;5078257;28;20484;-84
2021/09/06 13:28:40;;;;;;;9.43;6.38;;;;;;;;;;5079481;28;20322;-84
2021/09/06 13:31:06;;;;;;;12.65;6.70;;;;;;;;;;5079828;28;20412;-84
2021/09/06 13:33:34;;;;;;;19.08;11.43;;;;;;;;;;5079499;28;20029;-84
2021/09/06 13:36:00;;;;;;;15.05;9.93;;;;;;;;;;5078537;28;20060;-84
2021/09/06 13:38:28;;;;;;;10.65;8.15;;;;;;;;;;5079032;28;20024;-84
2021/09/06 13:40:54;;;;;;;10.45;7.75;;;;;;;;;;5077505;28;20419;-84
2021/09/06 13:43:20;;;;;;;14.10;8.57;;;;;;;;;;5078493;28;20459;-85
2021/09/06 13:45:46;;;;;;;16.80;11.35;;;;;;;;;;5079623;28;20027;-84
2021/09/06 13:48:12;;;;;;;13.88;8.75;;;;;;;;;;5079544;28;20073;-85
2021/09/06 13:50:38;;;;;;;9.95;8.18;;;;;;;;;;5078180;28;20434;-84
2021/09/06 13:53:04;;;;;;;12.05;7.88;;;;;;;;;;5079243;28;20055;-83
2021/09/06 13:55:30;;;;;;;15.48;9.48;;;;;;;;;;5079118;28;20025;-83
2021/09/06 13:57:58;;;;;;;13.82;8.73;;;;;;;;;;5078167;28;20091;-84
2021/09/06 14:00:25;;;;;;;13.20;8.60;;;;;;;;;;5079205;28;20157;-84
2021/09/06 14:02:51;;;;;;;19.67;12.10;;;;;;;;;;5079141;28;20025;-85
2021/09/06 14:05:19;;;;;;;13.65;7.90;;;;;;;;;;5078061;28;20454;-85
2021/09/06 14:07:45;;;;;;;12.65;6.60;;;;;;;;;;5079011;28;20040;-85
2021/09/06 14:10:11;;;;;;;10.05;6.80;;;;;;;;;;5077833;28;20349;-85
2021/09/06 14:12:38;;;;;;;16.55;12.82;;;;;;;;;;5077613;28;20048;-84
2021/09/06 14:15:04;;;;;;;10.05;6.63;;;;;;;;;;5077716;28;20441;-85
2021/09/06 14:17:30;;;;;;;11.80;7.30;;;;;;;;;;5078729;28;20032;-85
2021/09/06 14:19:57;;;;;;;8.82;6.60;;;;;;;;;;5078808;28;20024;-85
2021/09/06 14:22:23;;;;;;;11.50;8.00;;;;;;;;;;5078586;28;20052;-85
2021/09/06 14:24:49;;;;;;;15.13;8.70;;;;;;;;;;5078675;28;20074;-85
2021/09/06 14:27:15;;;;;;;9.82;6.78;;;;;;;;;;5078783;28;20025;-85
2021/09/06 14:29:42;;;;;;;9.77;6.70;;;;;;;;;;5078649;28;20414;-85
2021/09/06 14:32:08;;;;;;;9.75;6.75;;;;;;;;;;5077456;28;20119;-85
2021/09/06 14:34:34;;;;;;;13.18;8.13;;;;;;;;;;5077291;28;20424;-85